Badger — WDH3307 — position and weather

sailwx.info

Track history (hours):
 
Tides and Currents Weather Stations Pressure Air Temp Water Temp Dewpoint Dewpoint Depression Visibility Wind Speed Wind Dir Waves Ship Positions

Badger

Owner: Alliance Vessel Leasing LLC, Larose, LA. More information available from US FCC via Universal Licensing System and Coast Guard Vessel Documentation Center.

Last reported at 2018-May-18 09:56 UTC. Time now 2018-May-23 23:53 UTC.
Position N 29°21' W 091°24'.

Length 39 m; draft 3 m.

Type: Cargo ship. MMSI: 367606390.

Date/timePositionNaut miles runAvg speedWind from/ knotsBaromVisibWave heightAir tempDewpointWater temp
2018-May-18 09:56N 29°21' W 091°24'3 8.1
2018-May-18 09:30N 29°18' W 091°27'4 8.1
2018-May-18 09:00N 29°15' W 091°30'4 8.5
2018-May-18 08:30N 29°11' W 091°33'1110.0
2018-May-18 07:27N 29°01' W 091°34'3 6.4
2018-May-18 07:00N 28°58' W 091°34'6 9.6
2018-May-18 06:23N 28°52' W 091°33'4 9.9
2018-May-18 05:58N 28°48' W 091°33'62 5.1
2018-May-17 17:55N 27°46' W 091°31'17 1.3
2018-May-17 04:57N 28°03' W 091°32'2010.1
2018-May-17 03:01N 28°22' W 091°33'510.7
2018-May-17 02:30N 28°28' W 091°33'  
Track history (hours):
 
Tides and Currents Weather Stations Pressure Air Temp Water Temp Dewpoint Dewpoint Depression Visibility Wind Speed Wind Dir Waves Ship Positions

Badger

Owner: Alliance Vessel Leasing LLC, Larose, LA. More information available from US FCC via Universal Licensing System and Coast Guard Vessel Documentation Center.

Last reported at 2018-May-18 09:56 UTC. Time now 2018-May-23 23:53 UTC.
Position N 29°21' W 091°24'.

Length 39 m; draft 3 m.

Type: Cargo ship. MMSI: 367606390.

Date/timePositionNaut miles runAvg speedWind from/ knotsBaromVisibWave heightAir tempDewpointWater temp
2018-May-18 09:56N 29°21' W 091°24'3 8.1
2018-May-18 09:30N 29°18' W 091°27'4 8.1
2018-May-18 09:00N 29°15' W 091°30'4 8.5
2018-May-18 08:30N 29°11' W 091°33'1110.0
2018-May-18 07:27N 29°01' W 091°34'3 6.4
2018-May-18 07:00N 28°58' W 091°34'6 9.6
2018-May-18 06:23N 28°52' W 091°33'4 9.9
2018-May-18 05:58N 28°48' W 091°33'62 5.1
2018-May-17 17:55N 27°46' W 091°31'17 1.3
2018-May-17 04:57N 28°03' W 091°32'2010.1
2018-May-17 03:01N 28°22' W 091°33'510.7
2018-May-17 02:30N 28°28' W 091°33'  

Dump ship's entire track history